Time;durP1;ratioP1;P1;durP2;ratioP2;P2;SDS_P1;SDS_P2;PMS_P1;PMS_P2;Temp;Humidity;BMP_temperature;BMP_pressure;BME280_temperature;BME280_humidity;BME280_pressure;Samples;Min_cycle;Max_cycle;Signal;HPM_P1;HPM_P2
2022/05/25 02:53:12;;;;;;;6.32;1.30;;;17.00;66.70;;;;;;5151759;24;20135;-70
2022/05/25 02:55:38;;;;;;;1.90;1.05;;;16.90;66.80;;;;;;4808756;29;20095;-70
2022/05/25 02:58:04;;;;;;;4.45;1.00;;;16.90;66.80;;;;;;4800421;29;20043;-69
2022/05/25 03:00:30;;;;;;;4.45;1.20;;;16.90;66.80;;;;;;4808592;29;20062;-71
2022/05/25 03:02:56;;;;;;;5.93;1.48;;;16.90;66.90;;;;;;4809413;29;20051;-71
2022/05/25 03:05:22;;;;;;;11.75;1.73;;;16.90;67.10;;;;;;4809503;29;20390;-68
2022/05/25 03:07:48;;;;;;;6.47;1.65;;;16.80;67.20;;;;;;4809895;29;20332;-71
2022/05/25 03:10:14;;;;;;;3.35;1.35;;;16.90;67.50;;;;;;4811450;29;20125;-71
2022/05/25 03:12:40;;;;;;;7.65;1.60;;;16.80;67.60;;;;;;4802483;29;20050;-69
2022/05/25 03:15:06;;;;;;;3.50;1.40;;;16.80;67.40;;;;;;4809481;29;20055;-70
2022/05/25 03:17:32;;;;;;;3.28;1.13;;;16.80;67.50;;;;;;4824701;29;20122;-70
2022/05/25 03:19:58;;;;;;;5.38;1.70;;;16.80;67.40;;;;;;4823021;29;20412;-70
2022/05/25 03:22:25;;;;;;;11.02;1.73;;;16.80;67.50;;;;;;4816487;29;20047;-70
2022/05/25 03:24:51;;;;;;;4.00;1.48;;;16.90;67.60;;;;;;4809123;29;20046;-72
2022/05/25 03:27:17;;;;;;;6.60;1.00;;;16.80;67.50;;;;;;4825632;29;20129;-69
2022/05/25 03:29:43;;;;;;;5.43;1.60;;;16.90;67.60;;;;;;4827309;29;20057;-74
2022/05/25 03:32:10;;;;;;;9.00;2.40;;;16.80;67.40;;;;;;4827138;29;20050;-70
2022/05/25 03:34:36;;;;;;;4.72;1.55;;;16.80;67.50;;;;;;4827227;29;20050;-73
2022/05/25 03:37:02;;;;;;;7.15;1.42;;;16.80;67.50;;;;;;4826855;29;20054;-71
2022/05/25 03:39:28;;;;;;;3.45;0.90;;;16.80;67.60;;;;;;4809948;29;20123;-70
2022/05/25 03:42:00;;;;;;;5.15;1.25;;;16.80;67.60;;;;;;4808845;29;20051;-72
2022/05/25 03:44:26;;;;;;;6.47;2.00;;;16.80;67.40;;;;;;4808781;29;20451;-71
2022/05/25 03:46:53;;;;;;;10.95;1.95;;;16.80;67.40;;;;;;4808829;29;20058;-72
2022/05/25 03:49:19;;;;;;;9.43;1.50;;;16.80;67.50;;;;;;4808694;29;20055;-71
2022/05/25 03:51:45;;;;;;;4.70;1.27;;;16.80;67.50;;;;;;4822876;29;20106;-74
2022/05/25 03:54:11;;;;;;;3.40;1.20;;;16.80;67.50;;;;;;4834403;29;20366;-71
2022/05/25 03:56:38;;;;;;;4.57;0.98;;;16.80;67.60;;;;;;4845289;29;20049;-73
2022/05/25 03:59:04;;;;;;;5.00;0.82;;;16.80;67.60;;;;;;4838442;29;20066;-72
2022/05/25 04:01:32;;;;;;;4.70;1.35;;;16.80;67.60;;;;;;4839656;29;20050;-72
2022/05/25 04:03:58;;;;;;;4.65;1.13;;;16.80;67.50;;;;;;4837479;29;20093;-72
2022/05/25 04:06:25;;;;;;;5.35;1.35;;;16.80;67.50;;;;;;4826942;29;20054;-70
2022/05/25 04:08:51;;;;;;;4.45;1.10;;;16.80;67.60;;;;;;4826525;29;20050;-72
2022/05/25 04:11:17;;;;;;;4.13;1.23;;;16.80;67.60;;;;;;4826392;29;20062;-71
2022/05/25 04:13:42;;;;;;;2.97;1.13;;;16.80;67.70;;;;;;4810792;29;20062;-72
2022/05/25 04:16:08;;;;;;;3.95;0.70;;;16.80;67.70;;;;;;4828057;29;20093;-71
2022/05/25 04:18:34;;;;;;;4.20;0.90;;;16.70;67.90;;;;;;4844378;29;20049;-72
2022/05/25 04:21:00;;;;;;;6.72;1.00;;;16.80;67.80;;;;;;4845122;29;20065;-76
2022/05/25 04:23:27;;;;;;;4.00;1.23;;;16.70;67.80;;;;;;4844496;29;20374;-71
2022/05/25 04:25:54;;;;;;;4.32;1.35;;;16.80;67.80;;;;;;4844591;29;20454;-71
2022/05/25 04:28:20;;;;;;;8.15;1.20;;;16.80;67.70;;;;;;4844674;29;20140;-71
2022/05/25 04:30:47;;;;;;;9.65;1.50;;;16.80;67.80;;;;;;4826786;29;20480;-71
2022/05/25 04:33:14;;;;;;;6.30;0.90;;;16.80;67.80;;;;;;4844097;29;20057;-70
2022/05/25 04:35:40;;;;;;;7.18;1.05;;;16.80;67.80;;;;;;4832960;29;20382;-71
2022/05/25 04:38:07;;;;;;;4.95;0.98;;;16.90;67.70;;;;;;4844841;29;20042;-72
2022/05/25 04:40:35;;;;;;;8.88;2.13;;;16.90;67.20;;;;;;4840538;29;20194;-72
2022/05/25 04:43:05;;;;;;;3.20;0.98;;;17.00;66.90;;;;;;4820021;29;20343;-73
2022/05/25 04:45:32;;;;;;;6.68;1.15;;;17.10;66.40;;;;;;4826054;29;20050;-69
2022/05/25 04:47:59;;;;;;;4.20;1.20;;;17.10;66.10;;;;;;4840468;29;20398;-69
2022/05/25 04:50:29;;;;;;;9.93;1.77;;;17.10;65.90;;;;;;4844325;29;20058;-70
2022/05/25 04:52:59;;;;;;;7.90;2.20;;;17.10;65.70;;;;;;4844424;29;20100;-69
2022/05/25 04:58:18;;;;;;;3.83;0.90;;;17.10;65.90;;;;;;4810711;29;20462;-71
2022/05/25 05:00:43;;;;;;;5.53;1.52;;;17.10;66.30;;;;;;4826540;29;20354;-70
2022/05/25 05:03:09;;;;;;;2.58;0.80;;;17.10;67.40;;;;;;4826061;29;20055;-70
2022/05/25 05:05:35;;;;;;;6.90;1.00;;;17.10;66.60;;;;;;4830061;29;20053;-71
2022/05/25 05:08:01;;;;;;;5.85;1.10;;;17.10;66.70;;;;;;4827819;29;20411;-70
2022/05/25 05:10:26;;;;;;;6.28;1.42;;;17.10;66.70;;;;;;4844051;29;20354;-71
2022/05/25 05:12:52;;;;;;;8.25;1.35;;;17.10;66.90;;;;;;4828385;29;20054;-72
2022/05/25 05:15:18;;;;;;;5.90;1.10;;;17.10;67.30;;;;;;4844119;29;20136;-72
2022/05/25 05:17:43;;;;;;;5.57;0.80;;;17.10;67.10;;;;;;4843957;29;20453;-71
2022/05/25 05:20:10;;;;;;;7.72;1.08;;;17.10;67.40;;;;;;4832579;29;20417;-70
2022/05/25 05:22:36;;;;;;;5.20;1.05;;;17.10;67.40;;;;;;4826095;29;20050;-71
2022/05/25 05:25:02;;;;;;;8.32;0.77;;;17.10;67.40;;;;;;4829123;29;20149;-71
2022/05/25 05:27:28;;;;;;;5.38;0.90;;;17.10;67.70;;;;;;4829246;29;20141;-72
2022/05/25 05:30:00;;;;;;;4.32;0.70;;;17.10;68.00;;;;;;4828819;29;20129;-71
2022/05/25 05:32:27;;;;;;;11.30;1.48;;;17.10;68.20;;;;;;4829089;29;20085;-70
2022/05/25 05:34:53;;;;;;;12.38;1.33;;;17.10;68.00;;;;;;4829169;29;20061;-69
2022/05/25 05:37:26;;;;;;;15.20;1.73;;;17.10;68.50;;;;;;4846518;29;20110;-72
2022/05/25 05:39:55;;;;;;;10.13;1.00;;;17.20;68.90;;;;;;4847331;29;20080;-71
2022/05/25 05:42:23;;;;;;;7.10;1.17;;;17.20;68.50;;;;;;4847208;29;20053;-72
2022/05/25 05:44:54;;;;;;;13.77;1.50;;;17.20;68.30;;;;;;4847298;29;20113;-73
2022/05/25 05:47:25;;;;;;;5.60;1.23;;;17.20;68.30;;;;;;4846962;29;20089;-72
2022/05/25 05:49:51;;;;;;;6.18;1.35;;;17.30;68.30;;;;;;4847198;29;20057;-71
2022/05/25 05:52:17;;;;;;;6.97;1.00;;;17.30;68.30;;;;;;4847118;29;20050;-72
2022/05/25 05:54:44;;;;;;;4.95;1.25;;;17.30;68.20;;;;;;4814908;29;20218;-71
2022/05/25 05:57:11;;;;;;;7.38;0.68;;;17.30;68.10;;;;;;4829011;29;20070;-72
2022/05/25 05:59:38;;;;;;;4.68;1.27;;;17.40;68.20;;;;;;4828756;29;20150;-72
2022/05/25 06:02:05;;;;;;;13.10;1.30;;;17.40;68.10;;;;;;4833827;29;20064;-70
2022/05/25 06:04:32;;;;;;;16.10;1.75;;;17.50;67.90;;;;;;4844540;29;20054;-72
2022/05/25 06:06:57;;;;;;;11.07;1.73;;;17.50;67.80;;;;;;4846031;29;20057;-71
2022/05/25 06:09:23;;;;;;;19.50;2.50;;;17.60;67.90;;;;;;4847240;29;20056;-74
2022/05/25 06:11:49;;;;;;;32.42;3.47;;;17.60;67.80;;;;;;4838141;29;20061;-69
2022/05/25 06:14:14;;;;;;;12.90;2.17;;;17.60;68.00;;;;;;4843648;29;20085;-71
2022/05/25 06:19:29;;;;;;;13.43;1.20;;;17.70;67.90;;;;;;4846864;29;20093;-71
2022/05/25 06:21:58;;;;;;;7.43;1.58;;;17.70;67.90;;;;;;4846581;29;20140;-70
2022/05/25 06:24:26;;;;;;;5.70;1.17;;;17.70;67.10;;;;;;4846769;29;20458;-69
2022/05/25 06:26:53;;;;;;;5.80;1.45;;;17.70;67.00;;;;;;4845842;29;20137;-70
2022/05/25 06:29:20;;;;;;;4.05;1.00;;;17.80;66.90;;;;;;4846664;29;20049;-72
2022/05/25 06:31:47;;;;;;;3.88;1.00;;;17.80;66.70;;;;;;4829534;29;20072;-72
2022/05/25 06:34:13;;;;;;;4.72;1.00;;;17.80;66.60;;;;;;4846278;29;20045;-72
2022/05/25 06:36:39;;;;;;;6.93;1.50;;;17.80;66.50;;;;;;4846462;29;20050;-71
2022/05/25 06:39:04;;;;;;;4.10;0.95;;;17.80;66.60;;;;;;4846258;29;20054;-70
2022/05/25 06:41:30;;;;;;;5.10;0.77;;;17.80;66.60;;;;;;4846161;29;20071;-70
2022/05/25 06:43:56;;;;;;;8.32;1.50;;;17.90;66.90;;;;;;4830209;29;20061;-70
2022/05/25 06:46:22;;;;;;;4.57;0.80;;;17.90;67.20;;;;;;4846324;29;20132;-70
2022/05/25 06:48:50;;;;;;;3.47;0.75;;;17.90;67.30;;;;;;4846132;29;20145;-69
2022/05/25 06:51:20;;;;;;;6.03;0.85;;;18.00;67.40;;;;;;4837938;29;20051;-70
2022/05/25 06:53:46;;;;;;;4.07;0.70;;;18.00;67.50;;;;;;4827238;29;20094;-70
2022/05/25 06:56:12;;;;;;;2.42;0.77;;;18.00;68.10;;;;;;4827955;29;20065;-70
2022/05/25 06:58:37;;;;;;;5.97;1.00;;;18.00;67.60;;;;;;4797594;29;20054;-70
2022/05/25 07:01:04;;;;;;;4.90;1.15;;;18.00;67.60;;;;;;4825099;29;20050;-71
2022/05/25 07:03:30;;;;;;;2.78;0.57;;;18.00;67.70;;;;;;4828213;29;20414;-69
2022/05/25 07:05:57;;;;;;;4.90;0.82;;;18.10;67.70;;;;;;4827438;29;20096;-70
2022/05/25 07:08:23;;;;;;;3.80;0.77;;;18.10;67.60;;;;;;4833497;29;20145;-70
2022/05/25 07:10:49;;;;;;;2.42;0.47;;;18.10;67.60;;;;;;4846045;29;20050;-70
2022/05/25 07:13:17;;;;;;;4.63;0.75;;;18.10;67.70;;;;;;4846051;29;20050;-70
2022/05/25 07:15:43;;;;;;;1.52;0.50;;;18.10;67.70;;;;;;4845672;29;20061;-70
2022/05/25 07:18:10;;;;;;;3.05;0.45;;;18.10;67.70;;;;;;4845644;29;20050;-70
2022/05/25 07:20:36;;;;;;;3.78;0.75;;;18.10;67.60;;;;;;4845388;29;20449;-70
2022/05/25 07:23:02;;;;;;;3.38;0.80;;;18.20;67.40;;;;;;4845913;29;20060;-69
2022/05/25 07:25:28;;;;;;;5.15;0.80;;;18.10;67.20;;;;;;4829597;29;20068;-70
2022/05/25 07:27:54;;;;;;;2.45;0.60;;;18.20;67.80;;;;;;4835181;29;20099;-70
2022/05/25 07:30:20;;;;;;;3.22;0.43;;;18.20;67.40;;;;;;4827463;29;20054;-70
2022/05/25 07:32:47;;;;;;;3.83;0.45;;;18.10;67.30;;;;;;4827641;29;20432;-70
2022/05/25 07:35:16;;;;;;;1.60;0.47;;;18.20;67.60;;;;;;4827988;29;20157;-70
2022/05/25 07:37:48;;;;;;;1.33;0.57;;;18.20;67.50;;;;;;4825056;29;20126;-71
2022/05/25 07:40:29;;;;;;;2.47;0.38;;;18.20;67.60;;;;;;4827337;29;20051;-71
2022/05/25 07:42:59;;;;;;;1.92;0.30;;;18.20;67.60;;;;;;4826990;29;20061;-70
2022/05/25 07:45:25;;;;;;;3.42;0.60;;;18.20;67.50;;;;;;4826966;29;20515;-69
2022/05/25 07:47:53;;;;;;;1.92;0.47;;;18.20;67.50;;;;;;4810906;29;20494;-70
2022/05/25 07:50:20;;;;;;;1.38;0.30;;;18.30;67.30;;;;;;4823079;29;20450;-70
2022/05/25 07:52:46;;;;;;;1.77;0.50;;;18.30;67.20;;;;;;4845186;29;20140;-70
2022/05/25 07:55:12;;;;;;;2.35;0.40;;;18.30;67.10;;;;;;4844567;29;20215;-71
2022/05/25 07:57:39;;;;;;;1.80;0.50;;;18.30;67.30;;;;;;4829767;29;20062;-71
2022/05/25 08:00:06;;;;;;;1.63;0.35;;;18.30;67.50;;;;;;4845330;29;20433;-70
2022/05/25 08:08:09;;;;;;;1.00;0.40;;;18.30;67.60;;;;;;4844389;29;20065;-69
2022/05/25 08:10:36;;;;;;;3.28;0.47;;;18.30;67.50;;;;;;4844748;29;20438;-70
2022/05/25 08:13:03;;;;;;;2.97;0.38;;;18.30;67.50;;;;;;4843131;29;20057;-70
2022/05/25 08:15:29;;;;;;;1.02;0.20;;;18.30;67.50;;;;;;4831484;29;20061;-69
2022/05/25 08:17:56;;;;;;;0.90;0.30;;;18.30;67.50;;;;;;4844826;29;20068;-70
2022/05/25 08:20:21;;;;;;;0.93;0.35;;;18.30;67.40;;;;;;4844419;29;20484;-70
2022/05/25 08:22:48;;;;;;;1.30;0.40;;;18.40;67.60;;;;;;4829314;29;20054;-69
2022/05/25 08:25:15;;;;;;;1.90;0.40;;;18.30;67.40;;;;;;4828609;29;20108;-70
2022/05/25 08:27:41;;;;;;;1.27;0.30;;;18.40;67.30;;;;;;4844433;29;20449;-70
2022/05/25 08:30:12;;;;;;;1.77;0.30;;;18.40;67.20;;;;;;4844628;29;20087;-70
2022/05/25 08:32:37;;;;;;;3.17;0.85;;;18.40;67.00;;;;;;4828429;29;20141;-70
2022/05/25 08:35:04;;;;;;;1.02;0.30;;;18.40;67.00;;;;;;4826034;29;20551;-71
2022/05/25 08:37:30;;;;;;;2.08;0.50;;;18.40;67.20;;;;;;4826218;29;20046;-73
2022/05/25 08:39:56;;;;;;;0.88;0.30;;;18.40;67.30;;;;;;4826239;29;20110;-70
2022/05/25 08:42:24;;;;;;;1.73;0.30;;;18.40;67.30;;;;;;4826436;29;20098;-69
2022/05/25 08:44:53;;;;;;;0.65;0.30;;;18.40;67.30;;;;;;4826621;29;20046;-70
2022/05/25 08:47:19;;;;;;;2.08;0.47;;;18.40;67.20;;;;;;4826008;29;20089;-71
2022/05/25 08:49:47;;;;;;;2.45;0.40;;;18.40;67.30;;;;;;4826716;29;20107;-71
2022/05/25 08:52:24;;;;;;;2.22;0.55;;;18.40;67.10;;;;;;4810268;29;20455;-69
2022/05/25 08:54:50;;;;;;;2.42;0.75;;;18.40;66.50;;;;;;4825826;29;20076;-70
2022/05/25 08:57:24;;;;;;;2.22;0.50;;;18.40;66.40;;;;;;4830080;29;20062;-70
2022/05/25 09:00:06;;;;;;;2.83;0.68;;;18.40;66.20;;;;;;4829923;29;20057;-70
2022/05/25 09:02:36;;;;;;;1.85;0.40;;;18.40;66.10;;;;;;4827680;29;20089;-70
2022/05/25 09:05:28;;;;;;;3.05;0.52;;;18.30;66.10;;;;;;4825517;29;20049;-70
2022/05/25 09:08:26;;;;;;;4.47;0.80;;;18.40;66.10;;;;;;4846216;29;20489;-71
2022/05/25 09:10:58;;;;;;;3.17;0.85;;;18.40;65.90;;;;;;4847517;29;20146;-69
2022/05/25 09:13:35;;;;;;;5.05;1.27;;;18.40;66.00;;;;;;4847916;29;20056;-70
2022/05/25 09:16:16;;;;;;;2.78;0.50;;;18.40;65.90;;;;;;4832799;29;20053;-69
2022/05/25 09:19:01;;;;;;;6.15;0.88;;;18.40;66.00;;;;;;4848021;29;20050;-70
2022/05/25 09:21:39;;;;;;;3.80;0.60;;;18.40;66.10;;;;;;4847635;29;20061;-71
2022/05/25 09:24:11;;;;;;;7.03;0.77;;;18.40;66.20;;;;;;4847790;29;20057;-70
2022/05/25 09:26:38;;;;;;;5.18;0.68;;;18.40;66.00;;;;;;4832174;29;20409;-70
2022/05/25 09:29:07;;;;;;;5.00;0.77;;;18.40;65.70;;;;;;4847045;29;20050;-69
2022/05/25 09:31:40;;;;;;;3.65;0.60;;;18.40;65.70;;;;;;4831844;29;20058;-70
2022/05/25 09:34:08;;;;;;;;;;;18.40;65.60;;;;;;4828991;29;20058;-69
2022/05/25 09:36:44;;;;;;;5.25;0.82;;;18.40;65.50;;;;;;4829355;29;19971;-70
2022/05/25 09:39:13;;;;;;;5.22;0.60;;;18.40;65.80;;;;;;4829291;29;20133;-70
2022/05/25 09:41:44;;;;;;;2.83;0.75;;;18.40;65.80;;;;;;4829284;29;20058;-70
2022/05/25 09:44:14;;;;;;;2.65;0.68;;;18.50;65.70;;;;;;4829363;29;20103;-69
2022/05/25 09:46:50;;;;;;;3.45;0.75;;;18.50;65.70;;;;;;4828834;29;20046;-69
2022/05/25 09:49:35;;;;;;;6.18;1.10;;;18.40;65.50;;;;;;4812931;29;20058;-70
2022/05/25 09:52:23;;;;;;;2.38;0.60;;;18.50;65.30;;;;;;4817660;29;20079;-69
2022/05/25 09:55:12;;;;;;;3.95;0.70;;;18.50;65.20;;;;;;4843695;29;20076;-69
2022/05/25 09:57:50;;;;;;;3.33;0.88;;;18.50;65.50;;;;;;4847251;29;20054;-71
2022/05/25 10:00:21;;;;;;;2.25;1.15;;;18.50;65.70;;;;;;4831345;29;20062;-70
2022/05/25 10:02:52;;;;;;;6.28;1.48;;;18.50;65.70;;;;;;4833978;29;20050;-72
2022/05/25 10:05:27;;;;;;;8.05;5.10;;;18.50;65.70;;;;;;4828896;29;20413;-70
2022/05/25 10:08:15;;;;;;;7.13;3.65;;;18.50;65.10;;;;;;4828443;29;20052;-72
2022/05/25 10:10:55;;;;;;;6.82;2.92;;;18.50;65.20;;;;;;4828588;29;20058;-69
2022/05/25 10:13:25;;;;;;;7.25;2.10;;;18.50;65.40;;;;;;4838486;29;20365;-71
2022/05/25 10:15:52;;;;;;;2.30;1.50;;;18.50;65.60;;;;;;4828305;29;20054;-72
2022/05/25 10:18:40;;;;;;;4.80;2.22;;;18.50;65.60;;;;;;4840877;29;20053;-70
2022/05/25 10:21:10;;;;;;;4.20;2.15;;;18.50;65.50;;;;;;4830606;29;20123;-70
2022/05/25 10:23:41;;;;;;;4.38;1.85;;;18.50;65.60;;;;;;4835632;29;20054;-70
2022/05/25 10:26:15;;;;;;;4.68;2.15;;;18.50;65.60;;;;;;4828641;29;20054;-70
2022/05/25 10:28:55;;;;;;;4.40;1.90;;;18.50;65.70;;;;;;4828319;29;20079;-70
2022/05/25 10:37:00;;;;;;;6.45;2.00;;;18.50;65.80;;;;;;4827926;29;20051;-71
2022/05/25 10:39:28;;;;;;;4.55;1.45;;;18.50;65.80;;;;;;4828163;29;20066;-70
2022/05/25 10:42:15;;;;;;;7.00;1.67;;;18.50;65.90;;;;;;4828413;29;20151;-69
2022/05/25 10:45:11;;;;;;;4.57;1.40;;;18.60;66.00;;;;;;4828251;29;20060;-70
2022/05/25 10:47:54;;;;;;;3.55;1.00;;;18.50;66.50;;;;;;4828152;29;20137;-71
2022/05/25 10:50:49;;;;;;;2.00;0.98;;;18.60;65.90;;;;;;4828270;29;20050;-70
2022/05/25 10:53:41;;;;;;;5.50;1.42;;;18.60;65.90;;;;;;4827087;29;20058;-70
2022/05/25 10:56:26;;;;;;;2.92;1.08;;;18.60;66.00;;;;;;4826454;29;20054;-69
2022/05/25 10:59:13;;;;;;;3.47;1.35;;;18.60;65.80;;;;;;4827341;29;20378;-71
2022/05/25 11:02:10;;;;;;;3.22;1.20;;;18.60;65.90;;;;;;4827447;29;20058;-70
2022/05/25 11:04:39;;;;;;;3.03;1.50;;;18.60;65.90;;;;;;4832622;29;20045;-70
2022/05/25 11:07:24;;;;;;;3.10;1.30;;;18.60;65.90;;;;;;4846107;29;20046;-70
2022/05/25 11:10:07;;;;;;;3.08;1.38;;;18.60;65.70;;;;;;4845466;29;20061;-70
2022/05/25 11:13:04;;;;;;;2.10;1.23;;;18.60;65.70;;;;;;4846024;29;20054;-69
2022/05/25 11:15:45;;;;;;;3.25;1.13;;;18.60;65.60;;;;;;4806368;29;20089;-70
2022/05/25 11:18:32;;;;;;;3.10;1.25;;;18.60;65.60;;;;;;4846357;29;20049;-70
2022/05/25 11:21:17;;;;;;;2.42;0.85;;;18.60;65.50;;;;;;4845080;29;20050;-70
2022/05/25 11:23:49;;;;;;;3.53;0.93;;;18.60;65.50;;;;;;4845619;29;20090;-71
2022/05/25 11:26:32;;;;;;;1.52;0.63;;;18.60;65.50;;;;;;4841321;29;20046;-70
2022/05/25 11:29:07;;;;;;;2.63;0.50;;;18.60;65.00;;;;;;4827080;29;20047;-74
2022/05/25 11:31:47;;;;;;;3.13;0.47;;;18.70;60.20;;;;;;4827203;29;20060;-73
2022/05/25 11:34:50;;;;;;;2.40;0.90;;;18.70;57.20;;;;;;4826349;29;20054;-74
2022/05/25 11:37:56;;;;;;;4.55;0.73;;;18.60;56.30;;;;;;4829463;29;20058;-72
2022/05/25 11:40:42;;;;;;;2.80;0.40;;;18.50;57.20;;;;;;4768891;29;20066;-71
2022/05/25 11:43:45;;;;;;;3.28;0.47;;;18.50;57.70;;;;;;4830898;29;20073;-71
2022/05/25 11:46:32;;;;;;;7.18;1.25;;;18.50;57.50;;;;;;4827173;29;20486;-75
2022/05/25 11:49:07;;;;;;;8.30;1.10;;;18.50;58.00;;;;;;4834491;29;20050;-73
2022/05/25 11:51:39;;;;;;;10.50;0.70;;;18.50;58.10;;;;;;4829484;29;20053;-71
2022/05/25 11:54:26;;;;;;;4.35;0.52;;;18.60;57.30;;;;;;4828917;29;20065;-73
2022/05/25 11:57:43;;;;;;;8.90;1.05;;;18.60;58.30;;;;;;4845171;29;20058;-76
2022/05/25 12:00:31;;;;;;;9.52;0.88;;;18.60;58.70;;;;;;4806371;29;20118;-73
2022/05/25 12:03:05;;;;;;;6.70;0.65;;;18.60;59.00;;;;;;4844087;29;20053;-70
2022/05/25 12:05:54;;;;;;;9.85;1.20;;;18.60;59.60;;;;;;4828615;29;20065;-70
2022/05/25 12:08:45;;;;;;;6.88;0.82;;;18.60;59.80;;;;;;4844708;29;20065;-72
2022/05/25 12:11:42;;;;;;;7.40;0.73;;;18.60;60.00;;;;;;4844868;29;20081;-71
2022/05/25 12:14:18;;;;;;;5.25;0.47;;;18.60;60.20;;;;;;4838934;29;20058;-70
2022/05/25 12:16:46;;;;;;;5.35;0.75;;;18.60;60.20;;;;;;4844881;29;20058;-71
2022/05/25 12:19:19;;;;;;;5.22;0.40;;;18.60;60.30;;;;;;4845413;29;20391;-70
2022/05/25 12:21:53;;;;;;;7.68;0.85;;;18.60;60.40;;;;;;4844829;29;20072;-70
2022/05/25 12:24:33;;;;;;;5.13;0.50;;;18.60;60.60;;;;;;4834467;29;20060;-70
2022/05/25 12:27:04;;;;;;;3.58;0.73;;;18.60;61.30;;;;;;4826860;29;20090;-72
2022/05/25 12:29:46;;;;;;;7.30;0.70;;;18.60;60.80;;;;;;4810575;29;20054;-70
2022/05/25 12:32:13;;;;;;;2.83;0.60;;;18.70;60.90;;;;;;4810558;29;20126;-70
2022/05/25 12:34:43;;;;;;;3.00;0.63;;;18.70;61.10;;;;;;4826556;29;20062;-70
2022/05/25 12:37:12;;;;;;;1.63;0.30;;;18.60;61.10;;;;;;4810318;29;20163;-70
2022/05/25 12:39:53;;;;;;;2.85;0.55;;;18.70;61.20;;;;;;4826587;29;20066;-71
2022/05/25 12:42:25;;;;;;;3.80;0.80;;;18.70;61.20;;;;;;4826634;29;20054;-70
2022/05/25 12:51:05;;;;;;;2.00;0.43;;;18.70;61.30;;;;;;4844490;29;20141;-70
2022/05/25 12:53:37;;;;;;;2.92;0.32;;;18.70;61.40;;;;;;4844386;29;20046;-71
2022/05/25 12:56:16;;;;;;;1.33;0.30;;;18.70;61.30;;;;;;4844414;29;20057;-70
2022/05/25 12:58:47;;;;;;;3.97;0.28;;;18.70;61.30;;;;;;4844063;29;20057;-71
2022/05/25 13:01:22;;;;;;;3.80;0.50;;;18.70;61.20;;;;;;4844582;29;20050;-69
2022/05/25 13:03:47;;;;;;;4.30;0.80;;;18.70;61.20;;;;;;4844456;29;20065;-70
2022/05/25 13:06:22;;;;;;;3.45;0.68;;;18.70;61.20;;;;;;4844459;29;20058;-70
2022/05/25 13:08:51;;;;;;;2.45;0.43;;;18.70;61.10;;;;;;4844088;29;20053;-70
2022/05/25 13:11:37;;;;;;;2.42;0.50;;;18.70;61.10;;;;;;4843389;29;20057;-69
2022/05/25 13:14:20;;;;;;;0.98;0.30;;;18.70;61.10;;;;;;4826089;29;20054;-70
2022/05/25 13:16:51;;;;;;;2.10;0.40;;;18.70;61.20;;;;;;4826178;29;20100;-71
2022/05/25 13:19:32;;;;;;;2.08;0.20;;;18.70;61.30;;;;;;4826012;29;20133;-72
2022/05/25 13:22:05;;;;;;;2.88;0.60;;;18.70;61.20;;;;;;4825631;29;20058;-71
2022/05/25 13:24:49;;;;;;;;;;;18.70;61.30;;;;;;4811055;29;20123;-70
2022/05/25 13:27:24;;;;;;;;;;;18.70;61.50;;;;;;4826591;29;19924;-70
2022/05/25 13:30:08;;;;;;;;;;;18.70;61.50;;;;;;4826561;29;19925;-70
2022/05/25 13:32:37;;;;;;;;;;;18.70;61.60;;;;;;4810924;29;20260;-71
2022/05/25 13:35:11;;;;;;;;;;;18.70;61.70;;;;;;4826157;29;20032;-71
2022/05/25 13:37:38;;;;;;;;;;;18.70;61.70;;;;;;4829973;29;20089;-71
2022/05/25 13:40:07;;;;;;;;;;;18.70;61.80;;;;;;4844634;29;20301;-70
2022/05/25 13:42:33;;;;;;;;;;;18.60;61.80;;;;;;4841198;29;19951;-70
2022/05/25 13:45:03;;;;;;;;;;;18.60;61.80;;;;;;4845715;29;20356;-71
2022/05/25 13:47:29;;;;;;;;;;;18.70;61.90;;;;;;4847643;29;19932;-71
2022/05/25 13:49:57;;;;;;;;;;;18.60;61.80;;;;;;4831562;29;19939;-71
2022/05/25 13:52:23;;;;;;;;;;;18.70;61.90;;;;;;4832206;29;19924;-72
2022/05/25 13:55:02;;;;;;;;;;;18.60;61.90;;;;;;4847315;29;19935;-69
2022/05/25 13:57:27;;;;;;;;;;;18.70;61.90;;;;;;4847220;29;20272;-70
2022/05/25 13:59:53;;;;;;;;;;;18.70;61.90;;;;;;4847781;29;19925;-71
2022/05/25 14:02:21;;;;;;;;;;;18.70;61.90;;;;;;4837117;29;19932;-70
2022/05/25 14:04:48;;;;;;;;;;;18.70;61.90;;;;;;4829260;29;20316;-70
2022/05/25 14:07:32;;;;;;;;;;;18.70;62.00;;;;;;4812805;29;19935;-71
2022/05/25 14:12:47;;;;;;;;;;;18.60;61.90;;;;;;4828838;29;19925;-70
2022/05/25 14:15:16;;;;;;;;;;;18.60;62.00;;;;;;4829051;29;19937;-70
2022/05/25 14:17:52;;;;;;;;;;;18.60;62.00;;;;;;4828835;29;19925;-71
2022/05/25 14:20:18;;;;;;;;;;;18.60;62.00;;;;;;4829088;29;19924;-72
2022/05/25 14:22:43;;;;;;;;;;;18.60;62.00;;;;;;4828911;29;20375;-69
2022/05/25 14:25:14;;;;;;;;;;;18.60;62.00;;;;;;4829594;29;20012;-71
2022/05/25 14:27:40;;;;;;;;;;;18.60;62.00;;;;;;4833180;29;19928;-71
2022/05/25 14:30:25;;;;;;;;;;;18.60;62.10;;;;;;4847290;29;19924;-71
2022/05/25 14:32:58;;;;;;;;;;;18.60;62.10;;;;;;4847149;29;19968;-70
2022/05/25 14:35:24;;;;;;;;;;;18.60;62.10;;;;;;4846936;29;19935;-70
2022/05/25 14:37:50;;;;;;;;;;;18.70;62.10;;;;;;4847116;29;19925;-70
2022/05/25 14:40:17;;;;;;;;;;;18.60;62.00;;;;;;4846669;29;19924;-72
2022/05/25 14:42:57;;;;;;;;;;;18.60;62.00;;;;;;4846783;29;19924;-71
2022/05/25 14:45:24;;;;;;;;;;;18.60;62.00;;;;;;4846734;29;19924;-70
2022/05/25 14:47:52;;;;;;;;;;;18.60;62.00;;;;;;4847319;29;20240;-70
2022/05/25 14:50:36;;;;;;;;;;;18.60;62.00;;;;;;4830737;29;19924;-71
2022/05/25 14:53:20;;;;;;;;;;;18.60;62.00;;;;;;4830465;29;19935;-70
2022/05/25 14:55:46;;;;;;;;;;;18.60;62.00;;;;;;4811497;29;19925;-70
2022/05/25 14:58:17;;;;;;;;;;;18.60;61.90;;;;;;4841600;29;20041;-70
2022/05/25 15:00:45;;;;;;;;;;;18.60;62.00;;;;;;4842593;29;19924;-71
2022/05/25 15:03:11;;;;;;;;;;;18.60;62.00;;;;;;4828074;29;19989;-71
2022/05/25 15:05:37;;;;;;;;;;;18.70;62.00;;;;;;4828079;29;19983;-70
2022/05/25 15:08:03;;;;;;;;;;;18.60;61.80;;;;;;4832049;29;19968;-72
2022/05/25 15:10:32;;;;;;;;;;;18.60;61.80;;;;;;4828132;29;19924;-71
2022/05/25 15:12:57;;;;;;;;;;;18.60;61.90;;;;;;4832356;29;19925;-71
2022/05/25 15:18:32;;;;;;;;;;;18.60;61.60;;;;;;4829917;29;19924;-71
2022/05/25 15:20:59;;;;;;;;;;;18.60;61.40;;;;;;4845867;29;19958;-73
2022/05/25 15:23:31;;;;;;;;;;;18.70;62.10;;;;;;4845838;29;19928;-75
2022/05/25 15:26:07;;;;;;;;;;;18.70;61.60;;;;;;4845928;29;19924;-72
2022/05/25 15:28:34;;;;;;;;;;;18.60;61.00;;;;;;4845737;29;19924;-73
2022/05/25 15:31:04;;;;;;;;;;;18.70;61.90;;;;;;4846304;29;19993;-75
2022/05/25 15:33:32;;;;;;;;;;;18.70;61.70;;;;;;4845667;29;19985;-75
2022/05/25 15:36:08;;;;;;;;;;;18.60;61.00;;;;;;4813919;29;20305;-74
2022/05/25 15:38:34;;;;;;;;;;;18.60;60.90;;;;;;4827932;29;19925;-73
2022/05/25 15:40:59;;;;;;;;;;;18.70;61.30;;;;;;4828087;29;19935;-76
2022/05/25 15:43:25;;;;;;;;;;;18.70;61.80;;;;;;4828058;29;19924;-74
2022/05/25 15:45:53;;;;;;;;;;;18.70;62.10;;;;;;4827448;29;19953;-74
2022/05/25 15:48:21;;;;;;;;;;;18.70;62.00;;;;;;4827357;29;19925;-76
2022/05/25 15:50:49;;;;;;;;;;;18.70;61.60;;;;;;4827463;29;19921;-77
2022/05/25 15:53:14;;;;;;;;;;;18.70;61.70;;;;;;4827276;29;19932;-76
2022/05/25 15:55:40;;;;;;;;;;;18.70;62.40;;;;;;4808953;29;20272;-74
2022/05/25 15:58:06;;;;;;;;;;;18.70;62.20;;;;;;4809178;29;19925;-75
2022/05/25 16:00:35;;;;;;;;;;;18.70;62.30;;;;;;4809059;29;19925;-74
2022/05/25 16:03:05;;;;;;;;;;;18.70;62.40;;;;;;4793756;29;19925;-79
2022/05/25 16:05:32;;;;;;;;;;;18.70;62.80;;;;;;4808131;29;20005;-76
2022/05/25 16:10:42;;;;;;;;;;;18.70;62.70;;;;;;4823562;29;20321;-75
2022/05/25 16:13:07;;;;;;;;;;;18.70;62.60;;;;;;4809068;29;19925;-74
2022/05/25 16:15:35;;;;;;;;;;;18.70;62.70;;;;;;4792947;29;19925;-74
2022/05/25 16:18:00;;;;;;;;;;;18.70;62.60;;;;;;4809005;29;20265;-75
2022/05/25 16:20:26;;;;;;;;;;;18.70;62.90;;;;;;4809011;29;19929;-72
2022/05/25 16:22:51;;;;;;;;;;;18.70;63.30;;;;;;4808432;29;20329;-75
2022/05/25 16:25:23;;;;;;;;;;;18.70;63.20;;;;;;4808551;29;19925;-74
2022/05/25 16:27:49;;;;;;;;;;;18.70;63.50;;;;;;4808816;29;19925;-74
2022/05/25 16:30:15;;;;;;;;;;;18.70;63.40;;;;;;4792927;29;20015;-74
2022/05/25 16:32:40;;;;;;;;;;;18.70;63.50;;;;;;4808867;29;19994;-78
2022/05/25 16:35:07;;;;;;;;;;;18.70;63.60;;;;;;4808226;29;19933;-74
2022/05/25 16:37:33;;;;;;;;;;;18.70;64.00;;;;;;4805438;29;19925;-75
2022/05/25 16:39:58;;;;;;;;;;;18.70;63.90;;;;;;4808542;29;19925;-73
2022/05/25 16:42:24;;;;;;;;;;;18.70;64.00;;;;;;4792748;29;19985;-73
2022/05/25 16:44:50;;;;;;;;;;;18.70;64.10;;;;;;4807835;29;20047;-71
2022/05/25 16:47:15;;;;;;;;;;;18.70;64.20;;;;;;4808428;29;19989;-72
2022/05/25 16:49:41;;;;;;;;;;;18.80;64.30;;;;;;4808214;29;19925;-73
2022/05/25 16:52:06;;;;;;;;;;;18.80;64.30;;;;;;4822810;29;19925;-73